Kitty C — 2EIQ6 — position and weather

sailwx.info

Track history (hours):
 
Tides and Currents Weather Stations Pressure Air Temp Water Temp Dewpoint Dewpoint Depression Visibility Wind Speed Wind Dir Waves Ship Positions

Kitty C

Last reported at 2017-Nov-19 20:17 UTC. Time now 2017-Dec-14 10:03 UTC.
Position N 36°17' E 014°39'.
Warning: this ship's position is 24 days out of date.

Length 106 m; draft 4.5 m.

Type: Cargo ship. MMSI: 235085464.

Date/timePositionNaut miles runAvg speedWind from/ knotsBaromVisibWave heightAir tempDewpointWater temp
2017-Nov-19 20:17N 36°17' E 014°39'6 9.7
2017-Nov-19 19:40N 36°19' E 014°32'2 9.6
2017-Nov-19 19:30N 36°20' E 014°30'5 9.6
2017-Nov-19 19:01N 36°22' E 014°25'5 9.4
2017-Nov-19 18:30N 36°23' E 014°19'5 9.6
2017-Nov-19 18:00N 36°25' E 014°13'5 9.5
2017-Nov-19 17:30N 36°27' E 014°08'  
2017-Nov-15 16:48N 35°55' W 005°17'2 7.3
2017-Nov-15 16:31N 35°54' W 005°19'0 0.9
2017-Nov-15 16:00N 35°54' W 005°19'0 0.0
2017-Nov-15 15:30N 35°54' W 005°19'0 0.0
2017-Nov-15 14:57N 35°54' W 005°19'0 0.0
2017-Nov-15 14:30N 35°54' W 005°19'0 0.0
2017-Nov-15 14:00N 35°54' W 005°19'0 0.0
2017-Nov-15 13:30N 35°54' W 005°19'0 0.0
2017-Nov-15 13:00N 35°54' W 005°19'0 0.0
2017-Nov-15 12:30N 35°54' W 005°19'0 0.0
2017-Nov-15 12:00N 35°54' W 005°19'0 0.0
2017-Nov-15 11:30N 35°54' W 005°19'0 0.0
2017-Nov-15 11:01N 35°54' W 005°19'1 1.8
2017-Nov-15 10:30N 35°54' W 005°18'3 6.5
2017-Nov-15 10:00N 35°56' W 005°22'4 8.7
2017-Nov-15 09:30N 35°57' W 005°27'148 8.9
2017-Nov-14 16:47N 36°22' W 008°28'93 7.9
2017-Nov-14 05:03N 37°31' W 009°46'0 9.1
2017-Nov-14 05:00N 37°31' W 009°47'16 9.4
2017-Nov-14 03:19N 37°47' W 009°51'3 9.2
2017-Nov-14 03:00N 37°49' W 009°52'5 9.3
2017-Nov-14 02:26N 37°54' W 009°54'4 9.6
2017-Nov-14 02:01N 37°58' W 009°55'12 9.6
2017-Nov-14 00:44N 38°10' W 009°58'2 9.7
2017-Nov-14 00:30N 38°13' W 009°59'5 9.5
2017-Nov-14 00:01N 38°17' W 010°00'5 9.5
2017-Nov-13 23:31N 38°22' W 010°01'6 9.4
2017-Nov-13 22:50N 38°28' W 010°04'3 9.2
2017-Nov-13 22:30N 38°31' W 010°04'6 9.1
2017-Nov-13 21:51N 38°37' W 010°06'  
2017-Nov-11 03:22N 47°13' W 007°07'14 8.4
2017-Nov-11 01:44N 47°27' W 007°11'189 6.6
2017-Nov-09 20:58N 50°03' W 004°30'4 8.4
2017-Nov-09 20:31N 50°06' W 004°27'  
Track history (hours):
 
Tides and Currents Weather Stations Pressure Air Temp Water Temp Dewpoint Dewpoint Depression Visibility Wind Speed Wind Dir Waves Ship Positions

Kitty C

Last reported at 2017-Nov-19 20:17 UTC. Time now 2017-Dec-14 10:03 UTC.
Position N 36°17' E 014°39'.
Warning: this ship's position is 24 days out of date.

Length 106 m; draft 4.5 m.

Type: Cargo ship. MMSI: 235085464.

Date/timePositionNaut miles runAvg speedWind from/ knotsBaromVisibWave heightAir tempDewpointWater temp
2017-Nov-19 20:17N 36°17' E 014°39'6 9.7
2017-Nov-19 19:40N 36°19' E 014°32'2 9.6
2017-Nov-19 19:30N 36°20' E 014°30'5 9.6
2017-Nov-19 19:01N 36°22' E 014°25'5 9.4
2017-Nov-19 18:30N 36°23' E 014°19'5 9.6
2017-Nov-19 18:00N 36°25' E 014°13'5 9.5
2017-Nov-19 17:30N 36°27' E 014°08'  
2017-Nov-15 16:48N 35°55' W 005°17'2 7.3
2017-Nov-15 16:31N 35°54' W 005°19'0 0.9
2017-Nov-15 16:00N 35°54' W 005°19'0 0.0
2017-Nov-15 15:30N 35°54' W 005°19'0 0.0
2017-Nov-15 14:57N 35°54' W 005°19'0 0.0
2017-Nov-15 14:30N 35°54' W 005°19'0 0.0
2017-Nov-15 14:00N 35°54' W 005°19'0 0.0
2017-Nov-15 13:30N 35°54' W 005°19'0 0.0
2017-Nov-15 13:00N 35°54' W 005°19'0 0.0
2017-Nov-15 12:30N 35°54' W 005°19'0 0.0
2017-Nov-15 12:00N 35°54' W 005°19'0 0.0
2017-Nov-15 11:30N 35°54' W 005°19'0 0.0
2017-Nov-15 11:01N 35°54' W 005°19'1 1.8
2017-Nov-15 10:30N 35°54' W 005°18'3 6.5
2017-Nov-15 10:00N 35°56' W 005°22'4 8.7
2017-Nov-15 09:30N 35°57' W 005°27'148 8.9
2017-Nov-14 16:47N 36°22' W 008°28'93 7.9
2017-Nov-14 05:03N 37°31' W 009°46'0 9.1
2017-Nov-14 05:00N 37°31' W 009°47'16 9.4
2017-Nov-14 03:19N 37°47' W 009°51'3 9.2
2017-Nov-14 03:00N 37°49' W 009°52'5 9.3
2017-Nov-14 02:26N 37°54' W 009°54'4 9.6
2017-Nov-14 02:01N 37°58' W 009°55'12 9.6
2017-Nov-14 00:44N 38°10' W 009°58'2 9.7
2017-Nov-14 00:30N 38°13' W 009°59'5 9.5
2017-Nov-14 00:01N 38°17' W 010°00'5 9.5
2017-Nov-13 23:31N 38°22' W 010°01'6 9.4
2017-Nov-13 22:50N 38°28' W 010°04'3 9.2
2017-Nov-13 22:30N 38°31' W 010°04'6 9.1
2017-Nov-13 21:51N 38°37' W 010°06'  
2017-Nov-11 03:22N 47°13' W 007°07'14 8.4
2017-Nov-11 01:44N 47°27' W 007°11'189 6.6
2017-Nov-09 20:58N 50°03' W 004°30'4 8.4
2017-Nov-09 20:31N 50°06' W 004°27'  

Dump ship's entire track history